Time;durP1;ratioP1;P1;durP2;ratioP2;P2;SDS_P1;SDS_P2;PMS_P1;PMS_P2;Temp;Humidity;BMP_temperature;BMP_pressure;BME280_temperature;BME280_humidity;BME280_pressure;Samples;Min_cycle;Max_cycle;Signal;HPM_P1;HPM_P2
2023/04/16 00:01:25;;;;;;;9.48;7.10;;;;;10.50;98632.00;;;;5071102;28;20047;-61
2023/04/16 00:03:51;;;;;;;7.60;6.70;;;;;10.50;98635.00;;;;5072523;28;20101;-59
2023/04/16 00:06:18;;;;;;;10.18;7.70;;;;;10.50;98633.00;;;;5072876;28;20041;-59
2023/04/16 00:08:45;;;;;;;9.60;7.55;;;;;10.50;98627.00;;;;5072100;28;20464;-61
2023/04/16 00:11:12;;;;;;;9.30;8.27;;;;;10.50;98638.00;;;;5070776;28;20048;-61
2023/04/16 00:13:38;;;;;;;8.48;7.13;;;;;10.50;98630.00;;;;5072038;28;20036;-61
2023/04/16 00:16:05;;;;;;;9.20;7.15;;;;;10.50;98628.00;;;;5072348;28;20056;-61
2023/04/16 00:18:32;;;;;;;9.85;7.68;;;;;10.50;98636.00;;;;5072174;28;20044;-61
2023/04/16 00:20:59;;;;;;;9.98;7.63;;;;;10.60;98639.00;;;;5071979;28;20090;-61
2023/04/16 00:23:25;;;;;;;9.63;7.75;;;;;10.70;98639.00;;;;5074921;28;20405;-61
2023/04/16 00:25:52;;;;;;;9.38;7.80;;;;;10.60;98638.00;;;;5068556;28;20048;-61
2023/04/16 00:28:19;;;;;;;8.63;7.20;;;;;10.50;98647.00;;;;5055757;28;20045;-61
2023/04/16 00:30:45;;;;;;;9.85;7.45;;;;;10.60;98639.00;;;;5055423;28;20065;-61
2023/04/16 00:33:12;;;;;;;8.45;7.20;;;;;10.60;98634.00;;;;5056012;28;20045;-61
2023/04/16 00:35:39;;;;;;;8.75;6.97;;;;;10.60;98631.00;;;;5055773;28;20395;-61
2023/04/16 00:38:05;;;;;;;8.60;6.55;;;;;10.60;98642.00;;;;5055881;28;20428;-60
2023/04/16 00:40:32;;;;;;;8.00;6.50;;;;;10.70;98638.00;;;;5054002;28;20085;-61
2023/04/16 00:42:58;;;;;;;9.82;6.70;;;;;10.60;98641.00;;;;5055665;28;20041;-61
2023/04/16 00:45:25;;;;;;;9.00;6.88;;;;;10.40;98637.00;;;;5055638;28;20044;-61
2023/04/16 00:47:51;;;;;;;9.43;7.10;;;;;10.50;98634.00;;;;5054199;28;20444;-61
2023/04/16 00:50:18;;;;;;;8.80;6.78;;;;;10.50;98632.00;;;;5054060;28;20053;-61
2023/04/16 00:52:47;;;;;;;8.45;6.88;;;;;10.40;98639.00;;;;5054775;28;20049;-61
2023/04/16 00:55:16;;;;;;;9.48;7.30;;;;;10.40;98631.00;;;;5055340;28;20053;-59
2023/04/16 00:57:43;;;;;;;9.55;6.97;;;;;10.30;98641.00;;;;5053892;28;20047;-61
2023/04/16 01:00:11;;;;;;;9.40;7.15;;;;;10.30;98642.00;;;;5055109;28;20033;-61
2023/04/16 01:02:38;;;;;;;10.10;7.22;;;;;10.30;98640.00;;;;5055081;28;20115;-61
2023/04/16 01:05:05;;;;;;;11.05;7.40;;;;;10.30;98638.00;;;;5053874;28;20140;-60
2023/04/16 01:07:32;;;;;;;11.77;7.18;;;;;10.30;98633.00;;;;5054880;28;20405;-60
2023/04/16 01:09:58;;;;;;;8.15;6.38;;;;;10.30;98640.00;;;;5054950;28;20402;-59
2023/04/16 01:12:25;;;;;;;9.65;7.07;;;;;10.30;98640.00;;;;5053785;28;20044;-59
2023/04/16 01:14:51;;;;;;;9.60;7.75;;;;;10.20;98639.00;;;;5055237;28;20055;-60
2023/04/16 01:17:18;;;;;;;9.43;7.15;;;;;10.20;98647.00;;;;5053827;28;20533;-60
2023/04/16 01:19:44;;;;;;;9.95;7.93;;;;;10.30;98649.00;;;;5054846;28;20045;-59
2023/04/16 01:22:11;;;;;;;9.05;6.53;;;;;10.30;98652.00;;;;5055275;28;20477;-61
2023/04/16 01:24:38;;;;;;;9.48;7.38;;;;;10.40;98651.00;;;;5055145;28;20052;-60
2023/04/16 01:27:08;;;;;;;10.00;7.35;;;;;10.40;98651.00;;;;5054144;28;20048;-61
2023/04/16 01:29:35;;;;;;;9.32;6.85;;;;;10.40;98654.00;;;;5037380;28;20048;-59
2023/04/16 01:32:01;;;;;;;9.52;6.65;;;;;10.50;98655.00;;;;5053748;28;20045;-60
2023/04/16 01:34:33;;;;;;;10.27;6.93;;;;;10.50;98657.00;;;;5055246;28;20063;-61
2023/04/16 01:36:59;;;;;;;8.93;7.18;;;;;10.40;98666.00;;;;5055406;28;20099;-59
2023/04/16 01:39:26;;;;;;;9.18;7.53;;;;;10.50;98670.00;;;;5055285;28;20049;-60
2023/04/16 01:41:52;;;;;;;10.10;7.20;;;;;10.40;98675.00;;;;5055364;28;20053;-62
2023/04/16 01:44:20;;;;;;;8.93;7.25;;;;;10.40;98678.00;;;;5055633;28;20044;-60
2023/04/16 01:46:47;;;;;;;10.93;7.20;;;;;10.30;98668.00;;;;5055952;28;20037;-60
2023/04/16 01:49:14;;;;;;;10.73;7.47;;;;;10.30;98674.00;;;;5054393;28;20711;-60
2023/04/16 01:51:41;;;;;;;13.00;8.15;;;;;10.30;98677.00;;;;5056424;28;20410;-60
2023/04/16 01:54:08;;;;;;;9.90;7.95;;;;;10.20;98678.00;;;;5055981;28;20397;-60
2023/04/16 01:56:34;;;;;;;10.30;7.80;;;;;10.30;98664.00;;;;5053542;28;20045;-61
2023/04/16 01:59:01;;;;;;;10.65;7.95;;;;;10.20;98668.00;;;;5053158;28;20056;-60
2023/04/16 02:01:33;;;;;;;9.40;7.68;;;;;10.20;98674.00;;;;5053357;28;20087;-61
2023/04/16 02:04:00;;;;;;;10.75;7.75;;;;;10.30;98667.00;;;;5053110;28;20118;-61
2023/04/16 02:06:27;;;;;;;12.02;8.70;;;;;10.30;98670.00;;;;5053080;28;20041;-60
2023/04/16 02:08:53;;;;;;;11.25;7.97;;;;;10.20;98671.00;;;;5053019;28;20040;-61
2023/04/16 02:11:20;;;;;;;12.60;8.80;;;;;10.20;98665.00;;;;5052601;28;20045;-62
2023/04/16 02:13:48;;;;;;;11.25;7.63;;;;;10.20;98678.00;;;;5052853;28;20049;-61
2023/04/16 02:16:16;;;;;;;12.48;8.73;;;;;10.10;98673.00;;;;5052587;28;20045;-61
2023/04/16 02:18:51;;;;;;;11.07;8.10;;;;;10.20;98668.00;;;;5052539;28;20049;-60
2023/04/16 02:21:20;;;;;;;13.55;9.20;;;;;10.20;98678.00;;;;5052585;28;20049;-60
2023/04/16 02:23:50;;;;;;;11.52;8.77;;;;;10.30;98675.00;;;;5052570;28;20453;-61
2023/04/16 02:26:21;;;;;;;13.02;8.75;;;;;10.30;98680.00;;;;5052470;28;20140;-61
2023/04/16 02:28:48;;;;;;;13.40;8.50;;;;;10.30;98684.00;;;;5052118;28;20041;-61
2023/04/16 02:31:18;;;;;;;12.52;8.65;;;;;10.40;98678.00;;;;5052425;28;20482;-60
2023/04/16 02:33:46;;;;;;;11.50;8.98;;;;;10.40;98685.00;;;;5052237;28;20127;-60
2023/04/16 02:36:13;;;;;;;11.77;8.52;;;;;10.40;98681.00;;;;5052515;28;20456;-61
2023/04/16 02:38:40;;;;;;;11.45;8.45;;;;;10.40;98672.00;;;;5053298;28;20041;-61
2023/04/16 02:41:07;;;;;;;12.65;9.13;;;;;10.40;98673.00;;;;5035650;28;20108;-61
2023/04/16 02:43:33;;;;;;;12.25;8.60;;;;;10.40;98669.00;;;;5052150;28;20072;-61
2023/04/16 02:46:00;;;;;;;13.73;9.43;;;;;10.30;98667.00;;;;5052108;28;20420;-60
2023/04/16 02:48:27;;;;;;;10.73;8.20;;;;;10.20;98669.00;;;;5051822;28;20494;-61
2023/04/16 02:50:54;;;;;;;11.57;8.80;;;;;10.20;98666.00;;;;5053127;28;20041;-61
2023/04/16 02:53:21;;;;;;;12.18;8.70;;;;;10.30;98668.00;;;;5053183;28;20127;-60
2023/04/16 02:55:52;;;;;;;14.15;8.82;;;;;10.30;98673.00;;;;5051721;28;20521;-60
2023/04/16 02:58:19;;;;;;;11.25;8.32;;;;;10.30;98666.00;;;;5052213;28;20041;-60
2023/04/16 03:00:46;;;;;;;13.63;8.68;;;;;10.30;98660.00;;;;5051409;28;20052;-61
2023/04/16 03:03:13;;;;;;;10.35;8.27;;;;;10.30;98666.00;;;;5051964;28;20383;-61
2023/04/16 03:05:39;;;;;;;13.27;9.13;;;;;10.30;98665.00;;;;5052952;28;20120;-60
2023/04/16 03:08:06;;;;;;;12.00;8.18;;;;;10.30;98662.00;;;;5035206;28;20132;-60
2023/04/16 03:10:34;;;;;;;11.68;8.65;;;;;10.30;98661.00;;;;5052422;28;20065;-61
2023/04/16 03:13:01;;;;;;;13.75;9.00;;;;;10.30;98670.00;;;;5051619;28;20186;-60
2023/04/16 03:15:28;;;;;;;12.20;8.57;;;;;10.30;98667.00;;;;5051431;28;20429;-60
2023/04/16 03:17:54;;;;;;;11.85;8.98;;;;;10.20;98664.00;;;;5053066;28;20483;-61
2023/04/16 03:20:21;;;;;;;12.20;8.75;;;;;10.20;98665.00;;;;5052535;28;20419;-60
2023/04/16 03:22:48;;;;;;;12.55;8.57;;;;;10.30;98669.00;;;;5052482;28;20064;-60
2023/04/16 03:25:15;;;;;;;10.93;7.88;;;;;10.20;98669.00;;;;5051569;28;20049;-59
2023/04/16 03:27:41;;;;;;;11.27;8.65;;;;;10.10;98664.00;;;;5052438;28;20413;-59
2023/04/16 03:30:11;;;;;;;13.13;8.88;;;;;10.10;98668.00;;;;5051216;28;20047;-60
2023/04/16 03:32:38;;;;;;;13.60;8.43;;;;;10.10;98683.00;;;;5051185;28;20055;-61
2023/04/16 03:35:06;;;;;;;12.50;8.98;;;;;10.10;98674.00;;;;5052853;28;20452;-60
2023/04/16 03:37:33;;;;;;;13.10;9.32;;;;;10.00;98688.00;;;;5051177;28;20052;-59
2023/04/16 03:40:00;;;;;;;12.50;9.00;;;;;9.90;98683.00;;;;5052215;28;20441;-60
2023/04/16 03:42:27;;;;;;;13.35;9.23;;;;;10.00;98685.00;;;;5051914;28;20495;-60
2023/04/16 03:44:56;;;;;;;13.90;9.73;;;;;10.00;98688.00;;;;5051892;28;20052;-61
2023/04/16 03:47:22;;;;;;;12.23;8.73;;;;;10.00;98696.00;;;;5055363;28;20035;-61
2023/04/16 03:49:52;;;;;;;11.30;8.10;;;;;10.10;98697.00;;;;5056272;28;20057;-60
2023/04/16 03:52:19;;;;;;;15.63;10.02;;;;;10.00;98690.00;;;;5056537;28;20056;-59
2023/04/16 03:54:46;;;;;;;13.20;9.05;;;;;9.90;98691.00;;;;5053183;28;20049;-60
2023/04/16 03:57:28;;;;;;;13.15;9.38;;;;;9.90;98702.00;;;;5037355;28;20045;-60
2023/04/16 04:00:00;;;;;;;13.77;9.43;;;;;10.00;98698.00;;;;5051692;28;20099;-60
2023/04/16 04:02:39;;;;;;;16.13;10.68;;;;;9.90;98705.00;;;;5053020;28;20049;-60
2023/04/16 04:05:12;;;;;;;14.57;9.57;;;;;9.90;98709.00;;;;5051261;28;20140;-60
2023/04/16 04:07:40;;;;;;;12.30;8.70;;;;;9.80;98708.00;;;;5050893;28;20045;-60
2023/04/16 04:10:07;;;;;;;14.95;10.48;;;;;9.60;98706.00;;;;5051320;28;20045;-58
2023/04/16 04:12:37;;;;;;;15.20;9.43;;;;;9.60;98719.00;;;;5050932;28;20136;-60
2023/04/16 04:15:04;;;;;;;18.23;10.32;;;;;9.60;98708.00;;;;5052375;28;20041;-57
2023/04/16 04:17:31;;;;;;;16.00;10.00;;;;;9.50;98711.00;;;;5052533;28;20041;-60
2023/04/16 04:19:58;;;;;;;20.20;11.02;;;;;9.60;98717.00;;;;5051939;28;20505;-59
2023/04/16 04:22:29;;;;;;;16.40;10.38;;;;;9.60;98706.00;;;;5051040;28;20041;-58
2023/04/16 04:24:56;;;;;;;14.95;9.70;;;;;9.60;98717.00;;;;5051084;28;20056;-60
2023/04/16 04:27:26;;;;;;;16.92;11.25;;;;;9.50;98723.00;;;;5052395;28;20154;-59
2023/04/16 04:29:52;;;;;;;15.50;10.15;;;;;9.50;98719.00;;;;5053201;28;20072;-59
2023/04/16 04:32:20;;;;;;;17.15;10.45;;;;;9.50;98722.00;;;;5051161;28;20056;-57
2023/04/16 04:34:48;;;;;;;15.98;9.85;;;;;9.50;98726.00;;;;5052088;28;20049;-59
2023/04/16 04:37:14;;;;;;;16.02;9.98;;;;;9.50;98730.00;;;;5051490;28;20527;-58
2023/04/16 04:39:42;;;;;;;17.15;10.40;;;;;9.60;98734.00;;;;5051356;28;20041;-60
2023/04/16 04:42:11;;;;;;;17.33;10.75;;;;;9.60;98733.00;;;;5051442;28;20128;-60
2023/04/16 04:44:37;;;;;;;17.27;10.00;;;;;9.60;98735.00;;;;5051320;28;20049;-62
2023/04/16 04:47:04;;;;;;;15.95;9.48;;;;;9.70;98732.00;;;;5054250;28;20049;-60
2023/04/16 04:49:31;;;;;;;16.70;10.93;;;;;9.70;98742.00;;;;5050868;28;20041;-60
2023/04/16 04:51:57;;;;;;;16.92;10.40;;;;;9.70;98749.00;;;;5050794;28;20045;-60
2023/04/16 04:54:24;;;;;;;17.83;10.82;;;;;9.80;98742.00;;;;5050434;28;20075;-60
2023/04/16 04:56:52;;;;;;;16.45;10.38;;;;;9.90;98739.00;;;;5050643;28;20045;-59
2023/04/16 04:59:19;;;;;;;15.25;10.18;;;;;9.90;98742.00;;;;5050417;28;20103;-60
2023/04/16 05:01:46;;;;;;;15.27;10.05;;;;;10.00;98751.00;;;;5050653;28;20481;-56
2023/04/16 05:04:13;;;;;;;15.23;9.68;;;;;10.00;98754.00;;;;5050255;28;20072;-58
2023/04/16 05:06:39;;;;;;;17.83;10.73;;;;;10.00;98755.00;;;;5051404;28;20051;-57
2023/04/16 05:09:10;;;;;;;16.70;9.60;;;;;10.00;98753.00;;;;5035658;28;20045;-58
2023/04/16 05:11:38;;;;;;;18.35;11.35;;;;;10.00;98750.00;;;;5054827;28;20114;-57
2023/04/16 05:14:04;;;;;;;16.58;10.98;;;;;10.00;98762.00;;;;5055022;28;20041;-56
2023/04/16 05:16:30;;;;;;;13.90;9.60;;;;;9.90;98767.00;;;;5054964;28;20518;-57
2023/04/16 05:18:57;;;;;;;13.35;9.57;;;;;9.90;98761.00;;;;5053705;28;20041;-58
2023/04/16 05:21:25;;;;;;;15.07;9.25;;;;;9.90;98762.00;;;;5053557;28;20049;-58
2023/04/16 05:23:52;;;;;;;13.88;8.88;;;;;9.90;98763.00;;;;5054852;28;20061;-58
2023/04/16 05:26:18;;;;;;;15.43;10.18;;;;;10.10;98764.00;;;;5054738;28;20494;-58
2023/04/16 05:28:45;;;;;;;14.90;8.48;;;;;10.10;98764.00;;;;5054383;28;20625;-57
2023/04/16 05:31:11;;;;;;;14.98;8.82;;;;;10.10;98771.00;;;;5054579;28;20048;-58
2023/04/16 05:33:38;;;;;;;14.63;10.10;;;;;10.00;98768.00;;;;5054793;28;20605;-59
2023/04/16 05:36:05;;;;;;;13.57;8.98;;;;;10.10;98775.00;;;;5054560;28;20490;-59
2023/04/16 05:38:31;;;;;;;11.07;8.00;;;;;10.20;98771.00;;;;5036614;28;20048;-59
2023/04/16 05:40:58;;;;;;;14.10;8.65;;;;;10.10;98773.00;;;;5054464;28;20041;-59
2023/04/16 05:43:24;;;;;;;12.70;8.57;;;;;10.20;98772.00;;;;5053414;28;20052;-58
2023/04/16 05:45:51;;;;;;;14.38;8.57;;;;;10.30;98774.00;;;;5054485;28;20053;-58
2023/04/16 05:48:18;;;;;;;15.80;8.60;;;;;10.30;98775.00;;;;5054490;28;20047;-59
2023/04/16 05:50:45;;;;;;;12.65;8.73;;;;;10.30;98776.00;;;;5054160;28;20494;-57
2023/04/16 05:53:13;;;;;;;13.10;7.95;;;;;10.40;98778.00;;;;5053097;28;20053;-58
2023/04/16 05:55:39;;;;;;;13.82;8.57;;;;;10.50;98778.00;;;;5054399;28;20045;-58
2023/04/16 05:58:06;;;;;;;14.50;9.30;;;;;10.50;98787.00;;;;5054257;28;20049;-59
2023/04/16 06:00:33;;;;;;;14.45;8.82;;;;;10.50;98795.00;;;;5054086;28;20045;-59
2023/04/16 06:02:59;;;;;;;14.77;9.88;;;;;10.60;98794.00;;;;5054185;28;20045;-58
2023/04/16 06:05:26;;;;;;;12.35;9.30;;;;;10.60;98802.00;;;;5054154;28;20049;-62
2023/04/16 06:07:53;;;;;;;12.55;8.65;;;;;10.50;98796.00;;;;5053229;28;20091;-60
2023/04/16 06:10:19;;;;;;;12.40;8.75;;;;;10.60;98796.00;;;;5054290;28;20048;-60
2023/04/16 06:12:46;;;;;;;15.45;9.43;;;;;10.60;98801.00;;;;5053949;28;20049;-60
2023/04/16 06:15:13;;;;;;;13.10;8.38;;;;;10.60;98788.00;;;;5053909;28;20079;-64
2023/04/16 06:17:39;;;;;;;12.30;8.45;;;;;10.60;98782.00;;;;5054004;28;20084;-61
2023/04/16 06:20:06;;;;;;;14.77;8.30;;;;;10.70;98791.00;;;;5052907;28;20049;-60
2023/04/16 06:22:33;;;;;;;15.27;8.35;;;;;10.70;98788.00;;;;5054380;28;20079;-64
2023/04/16 06:25:00;;;;;;;15.32;9.50;;;;;10.70;98801.00;;;;5054705;28;20556;-59
2023/04/16 06:27:26;;;;;;;13.45;8.55;;;;;10.70;98805.00;;;;5054218;28;20071;-60
2023/04/16 06:29:53;;;;;;;14.63;9.55;;;;;10.70;98806.00;;;;5054120;28;20513;-61
2023/04/16 06:32:19;;;;;;;14.68;8.85;;;;;10.70;98809.00;;;;5054043;28;20041;-60
2023/04/16 06:34:46;;;;;;;13.73;9.05;;;;;10.60;98813.00;;;;5054216;28;20048;-60
2023/04/16 06:37:13;;;;;;;15.02;8.95;;;;;10.60;98817.00;;;;5054379;28;20047;-60
2023/04/16 06:39:39;;;;;;;13.85;9.40;;;;;10.60;98815.00;;;;5052416;28;20094;-60
2023/04/16 06:42:06;;;;;;;12.93;9.25;;;;;10.50;98817.00;;;;5054474;28;20045;-59
2023/04/16 06:44:32;;;;;;;14.30;9.95;;;;;10.50;98816.00;;;;5053690;28;20443;-60
2023/04/16 06:46:59;;;;;;;14.77;9.13;;;;;10.50;98823.00;;;;5053840;28;20498;-60
2023/04/16 06:49:26;;;;;;;16.98;9.98;;;;;10.40;98826.00;;;;5053217;28;20037;-60
2023/04/16 06:51:52;;;;;;;17.15;11.07;;;;;10.40;98826.00;;;;5053959;28;20494;-60
2023/04/16 06:54:19;;;;;;;16.23;10.10;;;;;10.30;98825.00;;;;5054048;28;20045;-59
2023/04/16 06:56:45;;;;;;;15.23;9.90;;;;;10.20;98829.00;;;;5053978;28;20045;-57
2023/04/16 06:59:12;;;;;;;14.73;10.25;;;;;10.20;98826.00;;;;5053739;28;20099;-61
2023/04/16 07:01:40;;;;;;;14.27;9.88;;;;;10.10;98823.00;;;;5053101;28;20045;-59
2023/04/16 07:04:06;;;;;;;14.25;9.73;;;;;10.10;98829.00;;;;5053420;28;20045;-60
2023/04/16 07:06:33;;;;;;;15.80;9.18;;;;;10.10;98837.00;;;;5053150;28;20449;-59
2023/04/16 07:08:59;;;;;;;12.50;9.02;;;;;10.10;98829.00;;;;5053000;28;20037;-58
2023/04/16 07:11:26;;;;;;;16.00;9.30;;;;;10.10;98837.00;;;;5053224;28;20144;-59
2023/04/16 07:13:53;;;;;;;16.45;10.00;;;;;10.00;98835.00;;;;5052969;28;20391;-58
2023/04/16 07:16:19;;;;;;;17.25;9.93;;;;;10.10;98831.00;;;;5053133;28;20041;-61
2023/04/16 07:18:46;;;;;;;14.10;9.45;;;;;10.10;98833.00;;;;5051457;28;20056;-61
2023/04/16 07:21:13;;;;;;;13.85;8.25;;;;;10.10;98837.00;;;;5052636;28;20044;-60
2023/04/16 07:23:39;;;;;;;15.60;9.10;;;;;10.20;98833.00;;;;5053108;28;20418;-60
2023/04/16 07:26:06;;;;;;;14.88;9.35;;;;;10.20;98830.00;;;;5053922;28;20045;-60
2023/04/16 07:28:32;;;;;;;14.88;8.32;;;;;10.30;98834.00;;;;5051979;28;20516;-60
2023/04/16 07:30:59;;;;;;;16.00;9.45;;;;;10.30;98837.00;;;;5053392;28;20049;-61
2023/04/16 07:33:26;;;;;;;13.30;8.65;;;;;10.30;98832.00;;;;5053400;28;20045;-60
2023/04/16 07:35:52;;;;;;;14.93;8.93;;;;;10.20;98835.00;;;;5053640;28;20472;-60
2023/04/16 07:38:19;;;;;;;12.88;8.75;;;;;10.30;98842.00;;;;5051456;28;20528;-59
2023/04/16 07:40:46;;;;;;;15.85;9.88;;;;;10.20;98847.00;;;;5052486;28;20071;-59
2023/04/16 07:43:14;;;;;;;14.88;8.90;;;;;10.30;98843.00;;;;5052510;28;20494;-61
2023/04/16 07:45:40;;;;;;;14.45;8.50;;;;;10.40;98845.00;;;;5052569;28;20037;-61
2023/04/16 07:48:07;;;;;;;15.68;9.50;;;;;10.50;98850.00;;;;5053402;28;20045;-61
2023/04/16 07:50:33;;;;;;;14.07;9.00;;;;;10.50;98845.00;;;;5052132;28;20048;-61
2023/04/16 07:53:00;;;;;;;15.00;8.90;;;;;10.40;98847.00;;;;5053246;28;20049;-60
2023/04/16 07:55:26;;;;;;;13.20;9.20;;;;;10.50;98842.00;;;;5051179;28;20045;-60
2023/04/16 07:57:54;;;;;;;14.35;8.27;;;;;10.70;98851.00;;;;5052902;28;20494;-58
2023/04/16 08:00:20;;;;;;;13.70;8.63;;;;;10.70;98853.00;;;;5056346;28;20127;-57
2023/04/16 08:02:47;;;;;;;11.60;7.60;;;;;10.90;98858.00;;;;5056356;28;20045;-60
2023/04/16 08:05:14;;;;;;;13.27;9.07;;;;;10.80;98858.00;;;;5055122;28;20114;-61
2023/04/16 08:07:40;;;;;;;16.35;9.13;;;;;10.80;98857.00;;;;5057344;28;20049;-60
2023/04/16 08:10:07;;;;;;;13.48;8.80;;;;;10.90;98866.00;;;;5054476;28;20045;-61
2023/04/16 08:12:34;;;;;;;13.82;9.18;;;;;11.00;98867.00;;;;5054558;28;20122;-59
2023/04/16 08:15:01;;;;;;;12.18;8.57;;;;;11.10;98869.00;;;;5055222;28;20048;-61
2023/04/16 08:17:28;;;;;;;12.88;8.57;;;;;11.10;98876.00;;;;5054521;28;20041;-62
2023/04/16 08:19:55;;;;;;;16.55;9.48;;;;;11.10;98868.00;;;;5056494;28;20049;-61
2023/04/16 08:22:21;;;;;;;15.23;8.10;;;;;11.20;98872.00;;;;5053478;28;20045;-60
2023/04/16 08:24:48;;;;;;;11.93;7.97;;;;;11.10;98875.00;;;;5054000;28;20049;-61
2023/04/16 08:27:15;;;;;;;13.52;8.00;;;;;11.00;98875.00;;;;5053690;28;20122;-61
2023/04/16 08:29:47;;;;;;;13.15;7.95;;;;;11.00;98876.00;;;;5052108;28;20060;-61
2023/04/16 08:32:14;;;;;;;10.85;7.15;;;;;11.10;98885.00;;;;5051859;28;20094;-61
2023/04/16 08:34:41;;;;;;;10.95;7.97;;;;;11.10;98880.00;;;;5050855;28;20045;-60
2023/04/16 08:37:08;;;;;;;14.25;8.23;;;;;11.10;98882.00;;;;5052149;28;20095;-62
2023/04/16 08:39:34;;;;;;;12.27;8.27;;;;;11.10;98889.00;;;;5051544;28;20047;-60
2023/04/16 08:42:04;;;;;;;12.38;8.07;;;;;11.20;98887.00;;;;5051645;28;20040;-60
2023/04/16 08:44:36;;;;;;;14.05;8.73;;;;;11.20;98881.00;;;;5054770;28;20041;-61
2023/04/16 08:47:06;;;;;;;12.18;8.65;;;;;11.20;98884.00;;;;5055733;28;20059;-61
2023/04/16 08:49:35;;;;;;;12.82;8.25;;;;;11.30;98884.00;;;;5055353;28;20044;-60
2023/04/16 08:52:05;;;;;;;12.52;8.05;;;;;11.30;98884.00;;;;5055310;28;20040;-59
2023/04/16 08:54:35;;;;;;;13.95;8.07;;;;;11.30;98893.00;;;;5055692;28;20072;-61
2023/04/16 08:57:05;;;;;;;13.32;8.43;;;;;11.30;98890.00;;;;5055583;28;20056;-60
2023/04/16 08:59:32;;;;;;;12.27;7.55;;;;;11.30;98897.00;;;;5055447;28;20091;-60
2023/04/16 09:01:59;;;;;;;12.10;8.07;;;;;11.30;98893.00;;;;5055304;28;20448;-59
2023/04/16 09:04:29;;;;;;;12.88;8.23;;;;;11.40;98895.00;;;;5055214;28;20120;-59
2023/04/16 09:06:57;;;;;;;11.43;8.30;;;;;11.40;98889.00;;;;5055104;28;20068;-59
2023/04/16 09:09:25;;;;;;;13.63;8.23;;;;;11.50;98893.00;;;;5054778;28;20045;-60
2023/04/16 09:11:53;;;;;;;11.95;7.88;;;;;11.60;98902.00;;;;5055225;28;20051;-59
2023/04/16 09:14:19;;;;;;;12.70;8.40;;;;;11.60;98896.00;;;;5055036;28;20052;-60
2023/04/16 09:16:46;;;;;;;13.35;8.20;;;;;11.80;98901.00;;;;5055038;28;20049;-58
2023/04/16 09:19:14;;;;;;;12.73;8.45;;;;;11.80;98898.00;;;;5054626;28;20052;-58
2023/04/16 09:21:43;;;;;;;12.57;8.95;;;;;11.80;98905.00;;;;5054970;28;20045;-60
2023/04/16 09:24:10;;;;;;;11.73;8.10;;;;;11.80;98904.00;;;;5054903;28;20538;-60
2023/04/16 09:26:37;;;;;;;10.35;7.50;;;;;11.70;98908.00;;;;5054865;28;20433;-59
2023/04/16 09:29:04;;;;;;;11.40;7.90;;;;;11.60;98913.00;;;;5054455;28;20041;-60
2023/04/16 09:31:30;;;;;;;11.63;8.13;;;;;11.50;98915.00;;;;5054652;28;20076;-59
2023/04/16 09:34:01;;;;;;;14.02;9.13;;;;;11.50;98912.00;;;;5054626;28;20045;-60
2023/04/16 09:36:28;;;;;;;12.70;8.75;;;;;11.50;98916.00;;;;5053417;28;20053;-60
2023/04/16 09:38:54;;;;;;;12.45;8.68;;;;;11.60;98919.00;;;;5053179;28;20079;-60
2023/04/16 09:41:26;;;;;;;14.05;8.82;;;;;11.60;98917.00;;;;5054334;28;20073;-60
2023/04/16 09:43:57;;;;;;;15.52;8.55;;;;;11.60;98922.00;;;;5054581;28;20045;-60
2023/04/16 09:46:29;;;;;;;13.43;9.18;;;;;11.50;98928.00;;;;5054553;28;20448;-58
2023/04/16 09:48:56;;;;;;;12.23;8.00;;;;;11.40;98926.00;;;;5054218;28;20045;-60
2023/04/16 09:51:24;;;;;;;12.30;8.73;;;;;11.40;98931.00;;;;5054329;28;20072;-61
2023/04/16 09:53:54;;;;;;;14.43;9.38;;;;;11.40;98933.00;;;;5054113;28;20052;-59
2023/04/16 09:56:25;;;;;;;16.13;9.70;;;;;11.40;98931.00;;;;5053370;28;20052;-59
2023/04/16 09:58:57;;;;;;;14.55;9.40;;;;;11.50;98937.00;;;;5054014;28;20045;-59
2023/04/16 10:01:24;;;;;;;13.70;9.07;;;;;11.40;98931.00;;;;5053163;28;20033;-60
2023/04/16 10:03:53;;;;;;;15.07;9.23;;;;;11.50;98938.00;;;;5053158;28;20049;-59
2023/04/16 10:06:24;;;;;;;15.55;10.00;;;;;11.60;98936.00;;;;5054237;28;20482;-60
2023/04/16 10:08:52;;;;;;;15.20;10.05;;;;;11.70;98937.00;;;;5054061;28;20429;-62
2023/04/16 10:11:20;;;;;;;13.88;8.90;;;;;11.70;98943.00;;;;5053907;28;20048;-61
2023/04/16 10:13:46;;;;;;;13.57;9.38;;;;;11.80;98942.00;;;;5053853;28;20055;-60
2023/04/16 10:16:13;;;;;;;13.55;9.27;;;;;11.70;98937.00;;;;5053873;28;20110;-60
2023/04/16 10:18:42;;;;;;;12.43;8.45;;;;;11.70;98938.00;;;;5053647;28;20033;-60
2023/04/16 10:21:11;;;;;;;14.48;9.10;;;;;11.80;98948.00;;;;5053716;28;20489;-60
2023/04/16 10:23:39;;;;;;;13.70;8.82;;;;;11.80;98941.00;;;;5053766;28;20142;-61
2023/04/16 10:26:05;;;;;;;13.43;9.10;;;;;11.90;98940.00;;;;5053825;28;20490;-61
2023/04/16 10:28:34;;;;;;;13.48;9.23;;;;;12.10;98940.00;;;;5053478;28;20048;-61
2023/04/16 10:31:02;;;;;;;15.20;9.95;;;;;12.10;98955.00;;;;5053506;28;20565;-61
2023/04/16 10:33:32;;;;;;;13.68;8.73;;;;;12.20;98958.00;;;;5053589;28;20056;-59
2023/04/16 10:36:12;;;;;;;13.07;8.68;;;;;12.10;98954.00;;;;5053628;28;20041;-60
2023/04/16 10:38:46;;;;;;;15.52;10.05;;;;;12.20;98960.00;;;;5053549;28;20436;-60
2023/04/16 10:41:13;;;;;;;14.57;8.88;;;;;12.30;98957.00;;;;5053540;28;20052;-60
2023/04/16 10:43:45;;;;;;;15.38;10.27;;;;;12.30;98963.00;;;;5053498;28;20049;-60
2023/04/16 10:46:17;;;;;;;16.30;9.75;;;;;12.00;98960.00;;;;5054140;28;20079;-60
2023/04/16 10:48:44;;;;;;;12.88;8.73;;;;;11.90;98964.00;;;;5053276;28;20486;-59
2023/04/16 10:51:25;;;;;;;20.40;13.00;;;;;12.00;98961.00;;;;5053332;28;20372;-60
2023/04/16 10:53:54;;;;;;;13.00;9.20;;;;;12.00;98958.00;;;;5052667;28;20065;-61
2023/04/16 10:56:25;;;;;;;16.40;9.43;;;;;11.90;98969.00;;;;5053393;28;20094;-63
2023/04/16 10:58:56;;;;;;;13.15;8.73;;;;;11.90;98960.00;;;;5053351;28;20039;-60
2023/04/16 11:01:30;;;;;;;14.15;9.25;;;;;11.80;98957.00;;;;5053548;28;20051;-60
2023/04/16 11:04:00;;;;;;;17.10;9.98;;;;;11.70;98952.00;;;;5053295;28;20049;-59
2023/04/16 11:06:28;;;;;;;19.67;9.77;;;;;11.80;98962.00;;;;5052838;28;20041;-61
2023/04/16 11:08:55;;;;;;;15.32;9.48;;;;;11.70;98956.00;;;;5053142;28;20544;-59
2023/04/16 11:11:22;;;;;;;17.17;10.40;;;;;11.70;98958.00;;;;5053712;28;20052;-60
2023/04/16 11:13:48;;;;;;;13.38;9.23;;;;;11.80;98962.00;;;;5054179;28;20044;-63
2023/04/16 11:16:15;;;;;;;16.80;9.98;;;;;11.80;98962.00;;;;5052998;28;20045;-60
2023/04/16 11:18:44;;;;;;;15.65;9.32;;;;;11.70;98959.00;;;;5053750;28;20045;-60
2023/04/16 11:21:18;;;;;;;16.90;9.38;;;;;11.60;98966.00;;;;5053941;28;20053;-59
2023/04/16 11:23:50;;;;;;;15.43;9.75;;;;;11.60;98962.00;;;;5052545;28;20106;-60
2023/04/16 11:26:20;;;;;;;16.77;10.48;;;;;11.60;98953.00;;;;5053723;28;20044;-59
2023/04/16 11:28:47;;;;;;;15.13;9.88;;;;;11.40;98958.00;;;;5053269;28;20057;-60
2023/04/16 11:31:13;;;;;;;17.75;9.85;;;;;11.40;98970.00;;;;5053547;28;20049;-59
2023/04/16 11:33:41;;;;;;;17.60;9.68;;;;;11.40;98959.00;;;;5053372;28;20041;-59
2023/04/16 11:36:08;;;;;;;16.25;10.20;;;;;11.50;98967.00;;;;5053100;28;20045;-60
2023/04/16 11:38:35;;;;;;;15.82;10.75;;;;;11.60;98962.00;;;;5052975;28;20040;-61
2023/04/16 11:41:02;;;;;;;14.27;9.70;;;;;11.70;98961.00;;;;5053235;28;20060;-61
2023/04/16 11:43:29;;;;;;;16.20;9.88;;;;;11.60;98971.00;;;;5052824;28;20091;-60
2023/04/16 11:45:57;;;;;;;16.38;10.45;;;;;11.60;98965.00;;;;5052669;28;20041;-60
2023/04/16 11:48:24;;;;;;;15.00;9.65;;;;;11.70;98965.00;;;;5052248;28;20098;-59
2023/04/16 11:50:55;;;;;;;15.50;10.00;;;;;11.80;98974.00;;;;5051970;28;20044;-60
2023/04/16 11:53:22;;;;;;;14.38;8.55;;;;;11.80;98971.00;;;;5052358;28;20414;-60
2023/04/16 11:55:49;;;;;;;17.55;9.93;;;;;11.80;98973.00;;;;5052582;28;20040;-60
2023/04/16 11:58:15;;;;;;;16.02;10.00;;;;;11.80;98974.00;;;;5052235;28;20190;-60
2023/04/16 12:00:43;;;;;;;16.30;9.57;;;;;11.90;98969.00;;;;5050765;28;20045;-60
2023/04/16 12:03:10;;;;;;;17.30;11.00;;;;;11.90;98969.00;;;;5052296;28;20041;-60
2023/04/16 12:05:39;;;;;;;13.00;9.00;;;;;11.80;98969.00;;;;5052013;28;20049;-60
2023/04/16 12:08:08;;;;;;;14.50;8.45;;;;;11.80;98973.00;;;;5051880;28;20144;-59
2023/04/16 12:10:37;;;;;;;13.93;9.48;;;;;11.70;98968.00;;;;5052045;28;20033;-58